Aktuální počasí v Česku a ve světě - METAR

Seznam meteostanic umístěných nejčasteji na letišti v ČR a ve světě

Vyhledat místa podle abecedy:
A B C D E F G H I J K L M N O P Q R S T U V W X Y Z

Filtrovat:

ID stanice:
a/nebo
Název místa (fulltext):
 
Místo (ID)Naposledy načteno 
Brno - Tuřany (Brno/Tu) 29.11.2020 19:00 UTC Zobrazit data
Místo: Brno - Tuřany
Teplota: 2 °C (pocitová: -3.3 °C)
Vítr: 2 m/s z(e) 320°
Počasí: déšť
Dohlednost: 35 km
Zákl. oblačnosti: 3/8 810 m;7/8 1500 m
Vlhkost: 87%
Červená - Opava (Cervena/uL) 29.11.2020 19:00 UTC Zobrazit data
Místo: Červená - Opava
Teplota: -2 °C (pocitová: -8.5 °C)
Vítr: 2 m/s z(e) 20°
Počasí: sněží
Dohlednost: 6 km
Zákl. oblačnosti: 1/8 30 m;8/8 1410 m
Vlhkost: 100%
České Budějovice (C.Budej/po) 29.11.2020 19:00 UTC Zobrazit data
Místo: České Budějovice
Teplota: 1 °C (pocitová: -3.1 °C)
Vítr: 1 m/s z(e) 50°
Počasí: zataženo
Dohlednost: 24 km
Zákl. oblačnosti: 8/8 1140 m
Vlhkost: 87%
Cheb (Cheb) 29.11.2020 19:00 UTC Zobrazit data
Místo: Cheb
Teplota: 1 °C (pocitová: -3.1 °C)
Vítr: 1 m/s z(e) 20°
Počasí: skoro zataženo
Dohlednost: 30 km
Zákl. oblačnosti: 7/8 840 m
Vlhkost: 75%
Chotusice - Čáslav (Caslav) 29.11.2020 19:00 UTC Zobrazit data
Místo: Chotusice - Čáslav
Teplota: 2 °C (pocitová: -6.4 °C)
Vítr: 5 m/s z(e) 300°
Počasí: skoro zataženo
Dohlednost: 20 km
Zákl. oblačnosti: 7/8 1800 m
Vlhkost: 87%
Churáňov (Churanov) 29.11.2020 19:00 UTC Zobrazit data
Místo: Churáňov
Teplota: -4 °C (pocitová: -11 °C)
Vítr: 2 m/s z(e) 0°
Počasí: zataženo
Dohlednost: 20 km
Zákl. oblačnosti: 8/8 330 m
Vlhkost: 93%
Doksany - Litoměřice (Doksany) 29.11.2020 19:00 UTC Zobrazit data
Místo: Doksany - Litoměřice
Teplota: 1 °C (pocitová: -3.1 °C)
Vítr: 1 m/s z(e) 0°
Počasí: skoro zataženo
Dohlednost: 30 km
Zákl. oblačnosti: 3/8 750 m;6/8 1500 m
Vlhkost: 93%
Dukovany (Dukovany) 29.11.2020 19:00 UTC Zobrazit data
Místo: Dukovany
Teplota: 1 °C (pocitová: -8.3 °C)
Vítr: 6 m/s z(e) 320°
Počasí: oblačno
Dohlednost: 15 km
Zákl. oblačnosti: 3/8 2100 m
Vlhkost: 93%
Holešov (Holesov) 29.11.2020 19:00 UTC Zobrazit data
Místo: Holešov
Teplota: 1 °C (pocitová: -4.6 °C)
Vítr: 2 m/s z(e) 10°
Počasí: skoro zataženo
Dohlednost: 20 km
Zákl. oblačnosti: 7/8 1500 m
Vlhkost: 93%
Kadaň - Tušimice (Tusimice) 29.11.2020 19:00 UTC Zobrazit data
Místo: Kadaň - Tušimice
Teplota: 2 °C (pocitová: -3.3 °C)
Vítr: 2 m/s z(e) 330°
Počasí: skoro zataženo
Dohlednost: 18 km
Zákl. oblačnosti: 5/8 990 m
Vlhkost: 87%
Karlovy Vary (K.Vary) 29.11.2020 19:00 UTC Zobrazit data
Místo: Karlovy Vary
Teplota: 0 °C (pocitová: -5.9 °C)
Vítr: 2 m/s z(e) 310°
Počasí: skoro zataženo
Dohlednost: 20 km
Zákl. oblačnosti: 6/8 630 m
Vlhkost: 87%
Kocelovice (Kocelovice) 29.11.2020 19:00 UTC Zobrazit data
Místo: Kocelovice
Teplota: 0 °C (pocitová: -5.9 °C)
Vítr: 2 m/s z(e) 320°
Počasí: skoro zataženo
Dohlednost: 22 km
Zákl. oblačnosti: 7/8 870 m
Vlhkost: 100%
Kopisty (Kopisty) 29.11.2020 18:00 UTC Zobrazit data
Místo: Kopisty
Teplota: 2 °C (pocitová: -1.8 °C)
Vítr: 1 m/s z(e) 290°
Počasí: skoro zataženo
Dohlednost: 35 km
Zákl. oblačnosti: 6/8 1290 m
Vlhkost: 87%
Kostelní Myslová (K.Myslova) 29.11.2020 19:00 UTC Zobrazit data
Místo: Kostelní Myslová
Teplota: 0 °C (pocitová: -5.9 °C)
Vítr: 2 m/s z(e) 300°
Počasí: zataženo
Dohlednost: 18 km
Zákl. oblačnosti: 8/8 360 m
Vlhkost: 100%
Křešín - Kramolín (Kramolin) 29.11.2020 19:00 UTC Zobrazit data
Místo: Křešín - Kramolín
Teplota: 0 °C (pocitová: -8.4 °C)
Vítr: 4 m/s z(e) 310°
Počasí: zataženo
Dohlednost: 24 km
Zákl. oblačnosti: 7/8 270 m
Vlhkost: 100%
Kuchařovice - Znojmo (Kucharovic) 29.11.2020 19:00 UTC Zobrazit data
Místo: Kuchařovice - Znojmo
Teplota: 1 °C (pocitová: -7 °C)
Vítr: 4 m/s z(e) 330°
Počasí: skoro zataženo
Dohlednost: 30 km
Zákl. oblačnosti: 1/8 600 m;7/8 2100 m
Vlhkost: 93%
Liberec (Liberec) 29.11.2020 19:00 UTC Zobrazit data
Místo: Liberec
Teplota: 1 °C (pocitová: -7 °C)
Vítr: 4 m/s z(e) 310°
Počasí: zataženo
Dohlednost: 3000 m
Zákl. oblačnosti: 8/8 60 m
Vlhkost: 93%
Luká (Luka) 29.11.2020 19:00 UTC Zobrazit data
Místo: Luká
Teplota: 0 °C (pocitová: -5.9 °C)
Vítr: 2 m/s z(e) 80°
Počasí: sněží
Dohlednost: 7 km
Zákl. oblačnosti: 8/8 120 m
Vlhkost: 100%
Lysá Hora (Lysa Hora) 27.11.2020 21:00 UTC Zobrazit data
Místo: Lysá Hora
Teplota: 0 °C (pocitová: -10.4 °C)
Vítr: 7 m/s z(e) 310°
Počasí: déšť
Dohlednost: 100 m
Zákl. oblačnosti: 1/8 90 m;7/8 600 m
Vlhkost: 100%
Milešovka (Milesovka) 29.11.2020 19:00 UTC Zobrazit data
Místo: Milešovka
Teplota: -2 °C (pocitová: -14.5 °C)
Vítr: 10 m/s z(e) 340°
Počasí: skoro zataženo
Dohlednost: 55 km
Zákl. oblačnosti: 4/8 990 m
Vlhkost: 100%
Mošnov (Ostrava/Mo) 29.11.2020 19:00 UTC Zobrazit data
Místo: Mošnov
Teplota: 0 °C (pocitová: -5.9 °C)
Vítr: 2 m/s z(e) 350°
Počasí: zataženo
Dohlednost: 6 km
Zákl. oblačnosti: 2/8 1800 m;8/8 2400 m
Vlhkost: 100%
Náměšť nad Oslavou (Namest n/O) 29.11.2020 19:00 UTC Zobrazit data
Místo: Náměšť nad Oslavou
Teplota: 1 °C (pocitová: -8.3 °C)
Vítr: 6 m/s z(e) 310°
Počasí: skoro zataženo
Dohlednost: 20 km
Zákl. oblačnosti: 3/8 330 m;6/8 660 m
Vlhkost: 93%
Pardubice (Pardubice) 29.11.2020 19:00 UTC Zobrazit data
Místo: Pardubice
Teplota: 3 °C (pocitová: -3.3 °C)
Vítr: 3 m/s z(e) 300°
Počasí: zataženo
Dohlednost: 20 km
Zákl. oblačnosti: 4/8 480 m;8/8 1500 m
Vlhkost: 87%
Pec pod Sněžkou (Pec p.Snez) 29.11.2020 19:00 UTC Zobrazit data
Místo: Pec pod Sněžkou
Teplota: -1 °C (pocitová: -7.2 °C)
Vítr: 2 m/s z(e) 250°
Počasí: sněží
Dohlednost: 600 m
Zákl. oblačnosti: 8/8 210 m
Vlhkost: 100%
Plzeň město - Mikulka (Plzen/Miku) 29.11.2020 19:00 UTC Zobrazit data
Místo: Plzeň město - Mikulka
Teplota: 2 °C (pocitová: -1.8 °C)
Vítr: 1 m/s z(e) 220°
Počasí: skoro zataženo
Dohlednost: 60 km
Zákl. oblačnosti: 7/8 1140 m
Vlhkost: 81%
Polom (Polom) 29.11.2020 19:00 UTC Zobrazit data
Místo: Polom
Teplota: -1 °C (pocitová: -7.2 °C)
Vítr: 2 m/s z(e) 350°
Počasí: zataženo
Dohlednost: 1000 m
Zákl. oblačnosti: 8/8 60 m
Vlhkost: 100%
Praha - Karlov (Praha/Kar) 29.11.2020 19:00 UTC Zobrazit data
Místo: Praha - Karlov
Teplota: 3 °C (pocitová: -3.3 °C)
Vítr: 3 m/s z(e) 330°
Počasí: skoro zataženo
Dohlednost: 28 km
Zákl. oblačnosti: 6/8 630 m;5/8 1500 m
Vlhkost: 81%
Praha - Kbely (Praha/Kbe) 29.11.2020 19:00 UTC Zobrazit data
Místo: Praha - Kbely
Teplota: 2 °C (pocitová: -4.7 °C)
Vítr: 3 m/s z(e) 310°
Počasí: skoro zataženo
Dohlednost: 20 km
Zákl. oblačnosti: 2/8 600 m;6/8 1800 m
Vlhkost: 87%
Praha - Libuš (Praha/Lib) 29.11.2020 19:00 UTC Zobrazit data
Místo: Praha - Libuš
Teplota: 2 °C (pocitová: -3.3 °C)
Vítr: 2 m/s z(e) 310°
Počasí: skoro zataženo
Dohlednost: 35 km
Zákl. oblačnosti: 7/8 510 m
Vlhkost: 87%
Praha - Ruzyně (Praha/Ru) 29.11.2020 19:00 UTC Zobrazit data
Místo: Praha - Ruzyně
Teplota: 1 °C (pocitová: -6 °C)
Vítr: 3 m/s z(e) 330°
Počasí: skoro zataženo
Dohlednost: 35 km
Zákl. oblačnosti: 3/8 540 m;5/8 1500 m
Vlhkost: 93%
Přibyslav (Pribyslav) 29.11.2020 19:00 UTC Zobrazit data
Místo: Přibyslav
Teplota: 1 °C (pocitová: -8.3 °C)
Vítr: 6 m/s z(e) 320°
Počasí: sněží
Dohlednost: 11 km
Zákl. oblačnosti: 8/8 240 m
Vlhkost: 93%
Přimda (Primda) 29.11.2020 19:00 UTC Zobrazit data
Místo: Přimda
Teplota: -2 °C (pocitová: -8.5 °C)
Vítr: 2 m/s z(e) 50°
Počasí: skoro zataženo
Dohlednost: 70 km
Zákl. oblačnosti: 7/8 690 m
Vlhkost: 93%
Šerák (Serak) 29.11.2020 17:00 UTC Zobrazit data
Místo: Šerák
Teplota: -5 °C (pocitová: -14 °C)
Vítr: 3 m/s z(e) 30°
Počasí: sněží
Dohlednost: 200 m
Zákl. oblačnosti: 8/8 30 m
Vlhkost: 100%
Svratouch (Svratouch) 29.11.2020 15:00 UTC Zobrazit data
Místo: Svratouch
Teplota: 0 °C (pocitová: -9.2 °C)
Vítr: 5 m/s z(e) 330°
Počasí: sněží
Dohlednost: 3000 m
Zákl. oblačnosti: 8/8 60 m
Vlhkost: 93%
Temelín (Temelin) 29.11.2020 19:00 UTC Zobrazit data
Místo: Temelín
Teplota: 0 °C (pocitová: -7.3 °C)
Vítr: 3 m/s z(e) 300°
Počasí: zataženo
Dohlednost: 30 km
Zákl. oblačnosti: 8/8 1020 m
Vlhkost: 100%
Ústí nad Labem - Kočkov (Usti n/L) 29.11.2020 19:00 UTC Zobrazit data
Místo: Ústí nad Labem - Kočkov
Teplota: 1 °C (pocitová: -6 °C)
Vítr: 3 m/s z(e) 360°
Počasí: skoro zataženo
Dohlednost: 70 km
Zákl. oblačnosti: 7/8 450 m
Vlhkost: 93%
Ústí nad Orlicí (Usti n/O) 29.11.2020 19:00 UTC Zobrazit data
Místo: Ústí nad Orlicí
Teplota: 1 °C (pocitová: -4.6 °C)
Vítr: 2 m/s z(e) 310°
Počasí: skoro zataženo
Dohlednost: 9 km
Zákl. oblačnosti: 3/8 150 m;7/8 690 m
Vlhkost: 100%
Aalborg (EKYT) 29.11.2020 18:50 UTC Zobrazit METAR
EKYT 291850Z AUTO 22004KT 9999 FEW010/// BKN027/// 02/00 Q1027
Aarhus (EKAH) 29.11.2020 18:50 UTC Zobrazit METAR
EKAH 291850Z AUTO 26002KT 9000 BKN013/// 01/00 Q1028
Abu Dhabi (OMAA) 29.11.2020 19:00 UTC Zobrazit METAR
OMAA 291900Z 07005KT CAVOK 22/18 Q1016 NOSIG
Abuja (DNAA) 29.11.2020 19:00 UTC Zobrazit METAR
DNAA 291900Z 21003KT CAVOK 28/17 Q1012 NOSIG
Accra (DGAA) 29.11.2020 19:00 UTC Zobrazit METAR
DGAA 291900Z 20007KT CAVOK 28/25 Q1010 NOSIG
Addis Abeba (HAAB) 29.11.2020 10:00 UTC Zobrazit METAR
HAAB 291000Z 13010KT 9999 BKN024 25/11 Q1025
Agana (PGUM) 29.11.2020 18:54 UTC Zobrazit METAR
PGUM 291854Z 08008KT 10SM FEW025 FEW038 SCT050 27/24 A2982 RMK AO2 SLP091 T02670244
Ahe Island (NTHE) Zatím nenačteno  
Akureyri (BIAR) 29.11.2020 19:00 UTC Zobrazit METAR
BIAR 291900Z VRB02KT 9999 SCT049 BKN056 M02/M04 Q1002 RMK R01/390095 RWY SANDED
Almaty (UAAA) Zatím nenačteno  
Amman (OJAM) 29.11.2020 19:00 UTC Zobrazit METAR
OJAM 291900Z 13007KT 6000 BKN030 13/07 Q1020 NOSIG
Amsterdam (EHAM) 29.11.2020 18:55 UTC Zobrazit METAR
EHAM 291855Z 11004KT 9000 NSC M00/M01 Q1027 BECMG 7000 MIFG
Antananarivo (FMMI) 29.11.2020 12:00 UTC Zobrazit METAR
FMMI 291200Z VRB04KT 9999 SCT020 31/11 Q1016 NOSIG
1 2 3 ... 9 Další
Reklama


Reklama

Další české internetové stránky (nejen) o počasí najdete v katalogu TOPlist - weby o počasí nebo vyhledejte na internetu, co jste tu na 🌞 Slunečnu ⛅ zatím nenašli:
⭐ Přidat Slunečno.cz do oblíbených | 🏠 Nastavit Slunečno.cz jako HOMEPAGE

⬆️ Posunout stránku nahoru ⬆️
Reklama